Time;durP1;ratioP1;P1;durP2;ratioP2;P2;SDS_P1;SDS_P2;PMS_P1;PMS_P2;Temp;Humidity;BMP_temperature;BMP_pressure;BME280_temperature;BME280_humidity;BME280_pressure;Samples;Min_cycle;Max_cycle;Signal;HPM_P1;HPM_P2
2021/10/16 00:01:55;;;;;;;18.38;10.82;;;6.00;99.90;;;;;;6106673;23;20029;-89
2021/10/16 00:04:43;;;;;;;15.65;10.35;;;5.90;99.90;;;;;;6106300;23;20387;-89
2021/10/16 00:07:32;;;;;;;21.70;13.55;;;5.80;99.90;;;;;;6126892;23;20025;-88
2021/10/16 00:10:20;;;;;;;21.00;12.75;;;5.90;99.90;;;;;;6127139;23;20025;-89
2021/10/16 00:13:07;;;;;;;20.52;13.48;;;5.90;99.90;;;;;;6116539;23;20026;-90
2021/10/16 00:16:00;;;;;;;21.02;13.63;;;5.90;99.90;;;;;;6106803;23;20034;-90
2021/10/16 00:18:47;;;;;;;;;;;5.90;99.90;;;;;;6109127;23;20040;-90
2021/10/16 00:21:41;;;;;;;20.55;14.13;;;6.00;99.90;;;;;;6106021;23;19917;-91
2021/10/16 00:24:31;;;;;;;21.25;14.50;;;6.10;99.90;;;;;;6107691;23;20025;-90
2021/10/16 00:27:19;;;;;;;21.25;14.63;;;6.10;99.90;;;;;;6128963;23;20370;-90
2021/10/16 00:30:14;;;;;;;23.02;16.50;;;6.20;99.90;;;;;;6126030;23;20029;-90
2021/10/16 00:33:22;;;;;;;21.23;13.43;;;6.30;99.90;;;;;;6126641;23;20022;-90
2021/10/16 00:36:22;;;;;;;21.02;14.25;;;6.30;99.90;;;;;;6126553;23;20082;-91
2021/10/16 00:39:30;;;;;;;;;;;;;;;;;;;;;
2021/10/16 00:42:26;;;;;;;21.45;13.85;;;6.20;99.90;;;;;;6130811;23;20032;-90
2021/10/16 00:45:26;;;;;;;15.98;11.00;;;6.20;99.90;;;;;;6157572;23;20064;-90
2021/10/16 00:48:25;;;;;;;20.80;15.32;;;6.30;99.90;;;;;;6156128;23;20452;-90
2021/10/16 00:51:37;;;;;;;22.05;14.45;;;6.30;99.90;;;;;;6152151;23;20025;-90
2021/10/16 00:54:50;;;;;;;24.98;15.10;;;6.50;99.90;;;;;;6139277;23;20324;-90
2021/10/16 00:57:46;;;;;;;22.90;14.88;;;6.60;99.90;;;;;;6136319;23;20074;-90
2021/10/16 01:00:43;;;;;;;22.92;15.18;;;6.70;99.90;;;;;;6157449;23;20034;-89
2021/10/16 01:03:40;;;;;;;19.13;12.40;;;6.80;99.90;;;;;;6157840;23;20087;-90
2021/10/16 01:07:08;;;;;;;32.38;17.25;;;6.90;99.90;;;;;;6108725;23;20408;-91
2021/10/16 01:10:07;;;;;;;30.13;16.92;;;7.00;99.90;;;;;;6118148;23;20116;-91
2021/10/16 01:13:17;;;;;;;24.02;16.05;;;7.10;99.90;;;;;;6156900;23;20079;-91
2021/10/16 01:16:53;;;;;;;28.42;18.48;;;7.10;99.90;;;;;;6152208;23;20037;-92
2021/10/16 01:19:56;;;;;;;28.20;18.80;;;7.20;99.90;;;;;;6137570;23;20040;-91
2021/10/16 01:23:11;;;;;;;34.67;18.83;;;7.30;99.90;;;;;;6139118;23;20080;-91
2021/10/16 01:26:24;;;;;;;25.98;16.83;;;7.30;99.90;;;;;;6155317;23;20078;-91
2021/10/16 01:29:23;;;;;;;24.83;16.05;;;7.40;99.90;;;;;;6137690;23;20104;-90
2021/10/16 01:33:23;;;;;;;;;;;;;;;;;;;;;
2021/10/16 01:36:51;;;;;;;23.67;15.80;;;7.50;99.90;;;;;;5995021;23;20039;-92
2021/10/16 01:40:06;;;;;;;;;;;;;;;;;;;;;
2021/10/16 01:43:23;;;;;;;23.17;14.25;;;7.50;99.90;;;;;;5983269;23;20443;-90
2021/10/16 01:46:38;;;;;;;;;;;;;;;;;;;;;
2021/10/16 01:49:40;;;;;;;;;;;;;;;;;;;;;
2021/10/16 01:52:53;;;;;;;22.92;14.70;;;7.60;99.90;;;;;;6065377;23;20102;-91
2021/10/16 01:56:12;;;;;;;23.52;14.45;;;7.50;99.90;;;;;;6051827;23;20071;-90
2021/10/16 01:59:36;;;;;;;24.45;15.75;;;7.50;99.90;;;;;;5902141;24;20120;-91
2021/10/16 02:02:33;;;;;;;19.85;14.13;;;7.60;99.90;;;;;;5927435;24;20032;-90
2021/10/16 02:05:24;;;;;;;21.88;14.45;;;7.60;99.90;;;;;;5907400;24;20468;-89
2021/10/16 02:08:19;;;;;;;20.00;12.30;;;7.60;99.90;;;;;;5925119;24;20024;-91
2021/10/16 02:11:08;;;;;;;16.77;12.15;;;7.60;99.90;;;;;;5990738;23;20020;-90
2021/10/16 02:14:26;;;;;;;19.25;12.38;;;7.50;99.90;;;;;;5980341;24;20065;-91
2021/10/16 02:17:29;;;;;;;17.00;12.07;;;7.40;99.90;;;;;;6056878;23;20026;-91
2021/10/16 02:20:35;;;;;;;;;;;;;;;;;;;;;
2021/10/16 02:24:05;;;;;;;17.67;12.18;;;7.50;99.90;;;;;;6096332;23;20037;-91
2021/10/16 02:26:58;;;;;;;19.98;12.35;;;7.40;99.90;;;;;;6074355;23;20110;-91
2021/10/16 02:30:14;;;;;;;;;;;;;;;;;;;;;
2021/10/16 02:33:23;;;;;;;18.55;12.68;;;7.40;99.90;;;;;;6154197;23;20052;-91
2021/10/16 02:36:31;;;;;;;;;;;;;;;;;;;;;
2021/10/16 02:39:49;;;;;;;;;;;;;;;;;;;;;
2021/10/16 02:43:20;;;;;;;20.25;12.82;;;7.40;99.90;;;;;;6046158;23;20155;-91
2021/10/16 02:46:40;;;;;;;;;;;;;;;;;;;;;
2021/10/16 02:49:51;;;;;;;;;;;;;;;;;;;;;
2021/10/16 02:53:08;;;;;;;19.17;13.20;;;7.60;99.90;;;;;;6064897;23;20027;-91
2021/10/16 02:56:25;;;;;;;;;;;;;;;;;;;;;
2021/10/16 02:59:35;;;;;;;;;;;;;;;;;;;;;
2021/10/16 03:02:37;;;;;;;13.93;9.70;;;7.40;99.90;;;;;;5953910;23;20032;-90
2021/10/16 03:06:16;;;;;;;18.05;12.65;;;7.50;99.90;;;;;;5952091;24;20038;-91
2021/10/16 03:09:18;;;;;;;;;;;;;;;;;;;;;
2021/10/16 03:12:57;;;;;;;25.05;16.02;;;7.50;99.90;;;;;;5871754;24;20053;-91
2021/10/16 03:16:06;;;;;;;28.58;17.20;;;7.50;99.90;;;;;;5983306;23;20048;-92
2021/10/16 03:19:37;;;;;;;28.10;18.80;;;7.60;99.90;;;;;;5928340;24;20052;-89
2021/10/16 03:22:56;;;;;;;21.23;14.05;;;7.70;99.90;;;;;;5875683;24;20039;-89
2021/10/16 03:26:18;;;;;;;22.50;15.13;;;7.80;99.90;;;;;;5873809;24;20030;-90
2021/10/16 03:29:40;;;;;;;;;;;;;;;;;;;;;
2021/10/16 03:32:38;;;;;;;22.05;15.95;;;7.80;99.90;;;;;;5927285;24;20120;-91
2021/10/16 03:36:03;;;;;;;;;;;;;;;;;;;;;
2021/10/16 03:38:57;;;;;;;24.52;15.43;;;7.70;99.90;;;;;;5989784;23;20439;-90
2021/10/16 03:42:28;;;;;;;20.65;14.07;;;7.70;99.90;;;;;;6008054;23;20542;-90
2021/10/16 03:45:41;;;;;;;;;;;;;;;;;;;;;
2021/10/16 03:48:53;;;;;;;21.92;15.70;;;7.70;99.90;;;;;;6094611;23;20023;-90
2021/10/16 03:52:03;;;;;;;;;;;;;;;;;;;;;
2021/10/16 03:55:16;;;;;;;40.65;23.02;;;7.90;99.90;;;;;;6007514;23;20040;-90
2021/10/16 03:58:36;;;;;;;51.85;25.38;;;7.90;99.90;;;;;;6009236;23;20054;-90
2021/10/16 04:02:20;;;;;;;49.10;25.73;;;7.90;99.90;;;;;;6008181;23;20038;-90
2021/10/16 04:05:23;;;;;;;49.03;26.10;;;7.90;99.90;;;;;;5852744;24;20030;-84
2021/10/16 04:08:24;;;;;;;;;;;7.80;99.90;;;;;;5896027;23;20049;-84
2021/10/16 04:11:11;;;;;;;61.90;27.55;;;7.80;99.90;;;;;;6020770;23;19922;-85
2021/10/16 04:13:59;;;;;;;82.45;35.35;;;7.80;99.90;;;;;;6064076;23;20129;-85
2021/10/16 04:16:46;;;;;;;96.45;38.40;;;7.80;99.90;;;;;;6063783;23;20399;-87
2021/10/16 04:19:33;;;;;;;91.22;37.90;;;7.80;99.90;;;;;;6120492;23;20026;-85
2021/10/16 04:22:20;;;;;;;91.38;39.88;;;7.90;99.90;;;;;;6154890;23;20025;-85
2021/10/16 04:25:11;;;;;;;120.25;44.17;;;7.90;99.90;;;;;;6144165;23;20022;-84
2021/10/16 04:27:58;;;;;;;128.60;45.38;;;7.80;99.90;;;;;;6152866;23;20429;-84
2021/10/16 04:30:46;;;;;;;110.38;41.42;;;7.80;99.90;;;;;;6155098;23;20052;-85
2021/10/16 04:33:33;;;;;;;144.73;45.70;;;7.70;99.90;;;;;;6153822;23;20048;-86
2021/10/16 04:36:20;;;;;;;148.00;47.55;;;7.70;99.90;;;;;;6151898;23;20085;-86
2021/10/16 04:39:07;;;;;;;150.73;45.53;;;7.70;99.90;;;;;;6152833;23;20040;-85
2021/10/16 04:41:55;;;;;;;166.60;45.97;;;7.70;99.90;;;;;;6151896;23;20213;-85
2021/10/16 04:44:44;;;;;;;158.73;45.33;;;7.60;99.90;;;;;;6153911;23;20322;-85
2021/10/16 04:47:32;;;;;;;144.27;45.20;;;7.60;99.90;;;;;;6151585;23;20583;-86
2021/10/16 04:50:20;;;;;;;177.23;47.35;;;7.60;99.90;;;;;;6152401;23;20105;-85
2021/10/16 04:53:07;;;;;;;178.60;48.17;;;7.60;99.90;;;;;;6152052;23;20052;-84
2021/10/16 04:55:54;;;;;;;183.77;48.05;;;7.60;99.90;;;;;;6153955;23;20029;-86
2021/10/16 04:58:42;;;;;;;193.75;48.90;;;7.60;99.90;;;;;;6154496;23;20097;-85
2021/10/16 05:01:29;;;;;;;190.85;49.13;;;7.60;99.90;;;;;;6152186;23;20103;-85
2021/10/16 05:04:17;;;;;;;194.73;47.88;;;7.60;99.90;;;;;;6150922;23;20052;-85
2021/10/16 05:07:05;;;;;;;186.60;46.70;;;7.60;99.90;;;;;;6152210;23;20028;-85
2021/10/16 05:09:54;;;;;;;182.60;47.03;;;7.60;99.90;;;;;;6150511;23;20073;-89
2021/10/16 05:13:26;;;;;;;;;;;;;;;;;;;;;
2021/10/16 05:21:22;;;;;;;;;;;;;;;;;;;;;
2021/10/16 05:32:39;;;;;;;218.95;51.72;;;7.60;99.90;;;;;;5983275;23;20037;-88
2021/10/16 05:35:43;;;;;;;237.18;52.95;;;7.60;99.90;;;;;;5982698;24;20035;-87
2021/10/16 05:38:31;;;;;;;233.10;50.28;;;7.60;99.90;;;;;;5980211;24;20051;-88
2021/10/16 05:41:20;;;;;;;229.80;52.17;;;7.60;99.90;;;;;;5960654;23;20032;-87
2021/10/16 05:44:08;;;;;;;248.98;54.72;;;7.60;99.90;;;;;;5960633;24;20032;-88
2021/10/16 05:46:55;;;;;;;271.60;55.92;;;7.60;99.90;;;;;;6015751;23;20030;-87
2021/10/16 05:49:42;;;;;;;265.13;54.08;;;7.60;99.90;;;;;;6046549;23;20034;-87
2021/10/16 05:52:30;;;;;;;299.83;55.50;;;7.60;99.90;;;;;;6045641;23;20038;-87
2021/10/16 05:55:19;;;;;;;267.15;54.08;;;7.60;99.90;;;;;;6045410;23;20026;-86
2021/10/16 05:58:09;;;;;;;252.73;51.38;;;7.60;99.90;;;;;;6044395;23;20378;-86
2021/10/16 06:00:56;;;;;;;203.95;43.05;;;7.60;99.90;;;;;;6063820;23;20113;-86
2021/10/16 06:03:43;;;;;;;219.00;48.00;;;7.70;99.90;;;;;;6063017;23;20131;-88
2021/10/16 06:06:33;;;;;;;257.63;50.90;;;7.70;99.90;;;;;;6155565;23;20025;-86
2021/10/16 06:09:22;;;;;;;249.75;47.38;;;7.70;99.90;;;;;;6160096;23;20029;-86
2021/10/16 06:12:09;;;;;;;226.05;47.58;;;7.80;99.90;;;;;;6153523;23;20093;-86
2021/10/16 06:14:56;;;;;;;225.93;47.53;;;7.70;99.90;;;;;;6154251;23;20132;-86
2021/10/16 06:17:44;;;;;;;207.85;47.15;;;7.70;99.90;;;;;;6154407;23;20048;-87
2021/10/16 06:20:31;;;;;;;202.27;45.55;;;7.80;99.90;;;;;;6152374;23;20033;-86
2021/10/16 06:23:20;;;;;;;185.95;42.55;;;7.80;99.90;;;;;;6154261;23;20080;-85
2021/10/16 06:26:08;;;;;;;157.98;40.92;;;7.80;99.90;;;;;;6164222;23;20076;-88
2021/10/16 06:28:57;;;;;;;133.43;37.58;;;7.80;99.90;;;;;;6172679;23;20026;-89
2021/10/16 06:31:45;;;;;;;156.80;39.58;;;7.70;99.90;;;;;;6155312;23;20447;-89
2021/10/16 06:34:33;;;;;;;153.25;40.85;;;7.80;99.90;;;;;;6136626;23;20044;-88
2021/10/16 06:37:22;;;;;;;161.68;40.42;;;7.80;99.90;;;;;;6157557;23;20026;-89
2021/10/16 06:40:16;;;;;;;157.77;39.83;;;7.80;99.90;;;;;;6154143;23;20037;-87
2021/10/16 06:43:03;;;;;;;;;;;7.80;99.90;;;;;;6152911;23;20088;-87
2021/10/16 06:45:50;;;;;;;138.65;39.05;;;7.90;99.90;;;;;;6155938;23;19927;-87
2021/10/16 06:48:38;;;;;;;155.52;39.28;;;7.90;99.90;;;;;;6155169;23;20025;-86
2021/10/16 06:51:25;;;;;;;169.35;41.28;;;7.90;99.90;;;;;;6155101;23;20088;-86
2021/10/16 06:54:14;;;;;;;165.38;44.20;;;7.90;99.90;;;;;;6153070;23;20025;-83
2021/10/16 06:57:04;;;;;;;169.05;43.55;;;8.00;99.90;;;;;;6135150;23;20025;-84
2021/10/16 06:59:51;;;;;;;198.38;46.63;;;8.00;99.90;;;;;;6113297;23;20049;-83
2021/10/16 07:02:38;;;;;;;252.48;45.97;;;8.10;99.90;;;;;;6153908;23;20092;-85
2021/10/16 07:05:26;;;;;;;210.93;46.97;;;8.10;99.90;;;;;;6131808;23;20481;-83
2021/10/16 07:08:13;;;;;;;287.27;52.72;;;8.20;99.90;;;;;;6153395;23;20025;-83
2021/10/16 07:11:04;;;;;;;248.82;50.45;;;8.10;99.90;;;;;;6134395;23;20556;-84
2021/10/16 07:13:52;;;;;;;231.05;51.10;;;8.10;99.90;;;;;;6136308;23;20021;-84
2021/10/16 07:16:39;;;;;;;219.45;48.10;;;8.10;99.90;;;;;;6154197;23;20025;-82
2021/10/16 07:19:26;;;;;;;220.68;48.10;;;8.20;99.90;;;;;;6133556;23;20092;-84
2021/10/16 07:22:13;;;;;;;215.20;47.00;;;8.20;99.90;;;;;;6154697;23;20089;-84
2021/10/16 07:25:03;;;;;;;212.48;47.45;;;8.30;99.90;;;;;;6155119;23;20085;-84
2021/10/16 07:27:54;;;;;;;216.75;47.25;;;8.30;99.90;;;;;;6156015;23;20025;-85
2021/10/16 07:30:41;;;;;;;223.25;44.17;;;8.30;99.90;;;;;;6115450;23;20093;-84
2021/10/16 07:33:29;;;;;;;234.43;47.70;;;8.40;99.90;;;;;;6134668;23;20483;-84
2021/10/16 07:36:16;;;;;;;206.00;46.40;;;8.40;99.90;;;;;;6131690;23;20033;-84
2021/10/16 07:39:05;;;;;;;197.18;44.45;;;8.50;99.90;;;;;;6155912;23;20135;-84
2021/10/16 07:41:52;;;;;;;203.32;45.88;;;8.50;99.90;;;;;;6154781;23;20125;-84
2021/10/16 07:44:40;;;;;;;222.18;46.55;;;8.50;99.90;;;;;;6124526;23;20345;-84
2021/10/16 07:47:27;;;;;;;172.95;43.22;;;8.50;99.90;;;;;;6126220;23;20094;-84
2021/10/16 07:50:16;;;;;;;150.43;39.67;;;8.70;99.90;;;;;;6123417;23;20047;-86
2021/10/16 07:53:04;;;;;;;158.07;40.10;;;8.80;99.90;;;;;;6124092;23;20109;-85
2021/10/16 07:55:51;;;;;;;164.45;41.38;;;8.80;99.90;;;;;;6101686;23;20085;-84
2021/10/16 07:58:40;;;;;;;157.07;41.53;;;8.80;99.90;;;;;;6125799;23;20034;-84
2021/10/16 08:01:27;;;;;;;146.18;40.20;;;8.90;99.90;;;;;;6103868;23;20030;-84
2021/10/16 08:04:14;;;;;;;109.70;36.30;;;9.10;99.90;;;;;;6103306;23;20086;-84
2021/10/16 08:07:02;;;;;;;155.65;37.95;;;9.10;99.90;;;;;;6102218;23;20120;-85
2021/10/16 08:09:49;;;;;;;123.10;38.40;;;9.20;99.90;;;;;;6123587;23;20053;-84
2021/10/16 08:12:37;;;;;;;102.57;33.72;;;9.20;99.90;;;;;;6123165;23;20081;-83
2021/10/16 08:15:25;;;;;;;107.45;35.67;;;9.10;99.90;;;;;;6104659;23;20394;-84
2021/10/16 08:18:13;;;;;;;93.22;33.03;;;9.10;99.90;;;;;;6123360;23;20076;-85
2021/10/16 08:21:02;;;;;;;95.05;31.98;;;9.20;99.90;;;;;;6125531;23;20430;-83
2021/10/16 08:23:49;;;;;;;89.90;31.85;;;9.30;99.90;;;;;;6104476;23;20048;-83
2021/10/16 08:26:36;;;;;;;89.82;31.55;;;9.30;99.90;;;;;;6082588;23;20033;-84
2021/10/16 08:29:24;;;;;;;93.07;32.55;;;9.30;99.90;;;;;;6123713;23;20041;-83
2021/10/16 08:32:11;;;;;;;98.13;32.67;;;9.40;99.90;;;;;;6103863;23;20374;-85
2021/10/16 08:34:58;;;;;;;92.40;31.40;;;9.40;99.90;;;;;;6125244;23;20418;-84
2021/10/16 08:37:45;;;;;;;94.72;32.53;;;9.30;99.90;;;;;;6127282;23;20417;-84
2021/10/16 08:40:33;;;;;;;94.35;32.03;;;9.30;99.90;;;;;;6136068;23;20045;-85
2021/10/16 08:43:21;;;;;;;94.80;33.38;;;9.40;99.90;;;;;;6129340;23;20025;-84
2021/10/16 08:46:08;;;;;;;91.18;31.88;;;9.40;99.90;;;;;;6133986;23;20044;-83
2021/10/16 08:49:02;;;;;;;93.43;32.78;;;9.50;99.90;;;;;;6153243;23;20055;-84
2021/10/16 08:51:50;;;;;;;88.65;30.73;;;9.60;99.90;;;;;;6153140;23;20048;-85
2021/10/16 08:54:39;;;;;;;81.97;29.95;;;9.60;99.90;;;;;;6133123;23;20099;-85
2021/10/16 08:57:47;;;;;;;86.18;30.98;;;9.90;99.90;;;;;;6115369;23;20041;-84
2021/10/16 09:00:51;;;;;;;68.93;27.77;;;10.00;99.90;;;;;;6133938;23;20100;-84
2021/10/16 09:03:47;;;;;;;63.25;26.30;;;10.00;99.90;;;;;;6153621;23;20026;-84
2021/10/16 09:06:35;;;;;;;53.90;23.65;;;10.10;99.90;;;;;;6131438;23;20409;-83
2021/10/16 09:09:32;;;;;;;47.55;19.88;;;10.20;99.90;;;;;;6133548;23;20434;-85
2021/10/16 09:12:20;;;;;;;34.08;16.15;;;10.30;99.90;;;;;;6133210;23;20160;-84
2021/10/16 09:15:21;;;;;;;40.55;20.45;;;10.50;99.90;;;;;;6135038;23;20029;-83
2021/10/16 09:18:11;;;;;;;44.00;22.73;;;10.50;99.90;;;;;;6134020;23;20039;-85
2021/10/16 09:20:58;;;;;;;49.28;24.45;;;10.60;99.90;;;;;;6133675;23;20032;-84
2021/10/16 09:23:46;;;;;;;55.72;26.63;;;10.90;99.90;;;;;;6134095;23;20025;-84
2021/10/16 09:26:35;;;;;;;40.15;22.20;;;10.90;99.90;;;;;;6155067;23;20084;-84
2021/10/16 09:29:24;;;;;;;43.50;22.35;;;10.90;99.90;;;;;;6132954;23;20413;-85
2021/10/16 09:32:14;;;;;;;41.67;20.63;;;11.10;99.90;;;;;;6153570;23;20032;-85
2021/10/16 09:35:08;;;;;;;41.60;20.90;;;11.10;99.90;;;;;;6154675;23;20033;-85
2021/10/16 09:37:56;;;;;;;46.20;22.13;;;11.00;99.90;;;;;;6154503;23;20029;-85
2021/10/16 09:40:44;;;;;;;42.28;22.67;;;10.80;99.90;;;;;;6154472;23;20354;-85
2021/10/16 09:43:35;;;;;;;43.47;22.08;;;10.70;99.90;;;;;;6152004;23;20120;-84
2021/10/16 09:46:23;;;;;;;41.80;22.13;;;10.60;99.90;;;;;;6132552;23;20441;-85
2021/10/16 09:49:11;;;;;;;41.55;22.20;;;10.70;99.90;;;;;;6154231;23;20460;-84
2021/10/16 09:52:02;;;;;;;42.13;22.58;;;10.70;99.90;;;;;;6153823;23;20409;-84
2021/10/16 09:54:50;;;;;;;47.75;25.25;;;10.80;99.90;;;;;;6154430;23;20033;-86
2021/10/16 09:57:41;;;;;;;50.08;25.45;;;11.10;99.90;;;;;;6133101;23;20103;-85
2021/10/16 10:00:29;;;;;;;48.20;26.25;;;11.20;99.90;;;;;;6155367;23;20057;-84
2021/10/16 10:03:22;;;;;;;43.17;23.63;;;11.30;99.90;;;;;;6133035;23;20125;-85
2021/10/16 10:06:16;;;;;;;34.45;20.05;;;11.50;99.90;;;;;;6154882;23;20030;-84
2021/10/16 10:09:03;;;;;;;37.13;22.15;;;11.60;99.90;;;;;;6134162;23;20093;-85
2021/10/16 10:11:53;;;;;;;34.33;20.13;;;11.70;99.90;;;;;;6155459;23;20378;-85
2021/10/16 10:14:50;;;;;;;40.03;21.63;;;11.70;99.90;;;;;;6135445;23;20088;-85
2021/10/16 10:17:37;;;;;;;38.30;22.45;;;11.80;99.90;;;;;;6156464;23;20345;-84
2021/10/16 10:20:26;;;;;;;35.15;20.90;;;12.00;99.90;;;;;;6133083;23;20057;-85
2021/10/16 10:23:24;;;;;;;36.78;22.30;;;12.20;99.90;;;;;;6136574;23;20092;-86
2021/10/16 10:26:38;;;;;;;38.63;23.63;;;12.40;99.90;;;;;;6158822;23;20029;-85
2021/10/16 10:29:37;;;;;;;41.75;25.25;;;12.40;99.90;;;;;;6134070;23;20029;-83
2021/10/16 10:32:28;;;;;;;40.85;24.83;;;12.10;99.90;;;;;;6153704;23;20037;-85
2021/10/16 10:35:16;;;;;;;47.70;27.33;;;12.00;99.90;;;;;;6155652;23;20120;-84
2021/10/16 10:38:33;;;;;;;44.00;26.27;;;11.80;99.90;;;;;;6155997;23;20040;-86
2021/10/16 10:41:23;;;;;;;44.13;26.10;;;12.00;99.90;;;;;;6135234;23;20366;-85
2021/10/16 10:44:38;;;;;;;41.22;25.23;;;12.10;99.90;;;;;;6156309;23;20052;-86
2021/10/16 10:47:38;;;;;;;45.08;26.10;;;12.40;99.90;;;;;;6155708;23;20025;-85
2021/10/16 10:50:43;;;;;;;34.95;21.85;;;12.40;99.90;;;;;;6155886;23;20030;-85
2021/10/16 10:53:36;;;;;;;38.15;23.80;;;12.40;99.90;;;;;;6155111;23;20108;-85
2021/10/16 10:56:38;;;;;;;39.75;23.48;;;12.30;99.90;;;;;;6155790;23;20029;-85
2021/10/16 10:59:25;;;;;;;37.53;24.60;;;12.50;99.90;;;;;;6155707;23;20394;-85
2021/10/16 11:02:29;;;;;;;41.88;24.42;;;12.50;99.90;;;;;;6153660;23;20084;-85
2021/10/16 11:08:16;;;;;;;42.50;24.58;;;12.40;99.90;;;;;;6155104;23;20291;-85
2021/10/16 11:11:04;;;;;;;38.65;24.02;;;12.40;99.90;;;;;;6134429;23;20029;-85
2021/10/16 11:13:51;;;;;;;33.60;22.70;;;12.50;99.90;;;;;;6158678;23;20021;-85
2021/10/16 11:16:56;;;;;;;30.23;20.90;;;12.70;99.90;;;;;;6147590;23;20021;-84
2021/10/16 11:19:52;;;;;;;29.63;20.75;;;12.80;99.90;;;;;;6145773;23;20037;-84
2021/10/16 11:22:53;;;;;;;30.95;20.38;;;13.00;99.90;;;;;;6154493;23;20037;-85
2021/10/16 11:26:00;;;;;;;29.80;18.77;;;13.10;99.90;;;;;;6134366;23;20025;-84
2021/10/16 11:28:48;;;;;;;28.77;18.98;;;13.30;99.90;;;;;;6156598;23;20029;-84
2021/10/16 11:31:37;;;;;;;26.92;18.13;;;13.50;99.90;;;;;;6133825;23;20044;-85
2021/10/16 11:34:26;;;;;;;27.23;17.95;;;13.30;99.90;;;;;;6132808;23;20025;-85
2021/10/16 11:37:15;;;;;;;29.10;20.00;;;13.30;99.90;;;;;;6135190;23;20373;-85
2021/10/16 11:40:20;;;;;;;28.58;19.40;;;13.40;99.90;;;;;;6114880;23;20649;-85
2021/10/16 11:43:16;;;;;;;26.40;18.83;;;13.50;99.90;;;;;;6132002;23;20060;-84
2021/10/16 11:46:14;;;;;;;28.65;19.25;;;13.30;99.90;;;;;;6154582;23;20112;-84
2021/10/16 11:49:05;;;;;;;25.33;17.83;;;13.10;99.90;;;;;;6155450;23;20096;-85
2021/10/16 11:51:52;;;;;;;29.90;18.35;;;13.20;99.90;;;;;;6131568;23;20021;-85
2021/10/16 11:54:40;;;;;;;24.63;17.13;;;13.60;99.90;;;;;;6115309;23;20029;-86
2021/10/16 11:57:29;;;;;;;26.80;17.23;;;14.20;99.90;;;;;;6155350;23;20037;-86
2021/10/16 12:00:27;;;;;;;24.25;15.45;;;14.60;99.90;;;;;;6133409;23;20044;-85
2021/10/16 12:03:20;;;;;;;23.52;14.77;;;15.40;99.90;;;;;;6154574;23;20311;-87
2021/10/16 12:06:15;;;;;;;19.33;14.90;;;16.50;99.90;;;;;;6154859;23;20029;-85
2021/10/16 12:09:04;;;;;;;21.83;15.82;;;17.70;98.60;;;;;;6154936;23;20021;-84
2021/10/16 12:11:59;;;;;;;20.15;14.45;;;18.00;98.00;;;;;;6139845;23;20033;-87
2021/10/16 12:14:46;;;;;;;21.05;12.75;;;19.50;93.30;;;;;;6156640;23;20061;-84
2021/10/16 12:17:34;;;;;;;16.58;12.35;;;21.60;82.60;;;;;;6133069;23;20441;-85
2021/10/16 12:20:23;;;;;;;17.50;12.45;;;22.60;73.70;;;;;;6114749;23;20029;-85
2021/10/16 12:23:11;;;;;;;16.23;13.15;;;23.50;64.70;;;;;;6154452;23;20663;-86
2021/10/16 12:25:58;;;;;;;15.85;12.00;;;24.30;59.00;;;;;;6154089;23;20084;-85
2021/10/16 12:28:45;;;;;;;14.35;11.48;;;24.30;57.00;;;;;;6134218;23;20040;-86
2021/10/16 12:31:45;;;;;;;13.75;10.63;;;24.90;55.50;;;;;;6152903;23;20108;-85
2021/10/16 12:34:34;;;;;;;13.60;10.73;;;25.40;52.90;;;;;;6155251;23;20080;-87
2021/10/16 12:37:21;;;;;;;16.08;11.13;;;25.00;52.90;;;;;;6134177;23;20029;-85
2021/10/16 12:40:12;;;;;;;13.45;10.88;;;24.90;53.50;;;;;;6134987;23;20128;-86
2021/10/16 12:43:00;;;;;;;14.88;10.43;;;24.40;53.30;;;;;;6133746;23;20373;-87
2021/10/16 12:45:48;;;;;;;12.18;9.73;;;23.90;54.50;;;;;;6154007;23;20045;-88
2021/10/16 12:48:48;;;;;;;11.90;9.10;;;23.50;54.70;;;;;;6153913;23;20037;-87
2021/10/16 12:51:42;;;;;;;12.35;9.82;;;23.50;56.10;;;;;;6132535;23;20029;-89
2021/10/16 12:54:41;;;;;;;13.85;8.55;;;24.40;52.20;;;;;;6132078;23;20384;-86
2021/10/16 12:57:29;;;;;;;13.82;9.38;;;24.10;53.80;;;;;;6153731;23;20033;-85
2021/10/16 13:00:21;;;;;;;10.90;8.35;;;25.10;50.70;;;;;;6134697;23;20033;-88
2021/10/16 13:03:10;;;;;;;12.13;9.50;;;24.80;51.10;;;;;;6112449;23;20435;-86
2021/10/16 13:05:59;;;;;;;11.85;8.55;;;24.50;51.60;;;;;;6156548;23;20029;-86
2021/10/16 13:08:46;;;;;;;9.75;8.68;;;24.50;52.00;;;;;;6154808;23;20021;-85
2021/10/16 13:11:34;;;;;;;13.07;10.50;;;25.00;50.90;;;;;;6152436;23;20032;-86
2021/10/16 13:14:21;;;;;;;13.80;9.65;;;25.00;51.50;;;;;;6131631;23;20025;-85
2021/10/16 13:17:08;;;;;;;11.32;9.45;;;25.00;50.70;;;;;;6153400;23;20369;-86
2021/10/16 13:19:55;;;;;;;12.85;9.05;;;25.20;49.70;;;;;;6133183;23;20380;-86
2021/10/16 13:22:43;;;;;;;14.02;9.93;;;26.20;50.00;;;;;;6155400;23;20026;-84
2021/10/16 13:25:30;;;;;;;14.00;9.75;;;26.10;48.40;;;;;;6134920;23;20021;-87
2021/10/16 13:28:18;;;;;;;14.15;9.45;;;24.10;51.00;;;;;;6160738;23;20025;-85
2021/10/16 13:31:07;;;;;;;14.52;9.98;;;22.80;55.80;;;;;;6168978;23;20044;-86
2021/10/16 13:33:57;;;;;;;13.38;9.65;;;22.50;55.40;;;;;;6141260;23;20021;-85
2021/10/16 13:36:47;;;;;;;11.15;8.82;;;21.80;57.60;;;;;;6133722;23;20096;-82
2021/10/16 13:39:34;;;;;;;10.48;8.32;;;21.90;57.40;;;;;;6131519;23;20086;-85
2021/10/16 13:42:22;;;;;;;14.82;7.97;;;23.40;53.70;;;;;;6132509;23;20586;-86
2021/10/16 13:45:14;;;;;;;12.40;7.70;;;23.80;53.70;;;;;;6155324;23;20163;-91
2021/10/16 13:48:04;;;;;;;12.70;8.75;;;23.70;53.40;;;;;;6154328;23;20025;-89
2021/10/16 13:50:52;;;;;;;9.70;8.30;;;24.30;51.80;;;;;;6155627;23;20036;-89
2021/10/16 13:53:39;;;;;;;10.88;7.75;;;25.70;50.00;;;;;;6153918;23;20416;-89
2021/10/16 13:56:27;;;;;;;8.70;7.78;;;25.40;49.10;;;;;;6130893;23;20025;-92
2021/10/16 13:59:15;;;;;;;10.93;7.70;;;25.50;49.20;;;;;;6155241;23;20096;-92
2021/10/16 14:02:02;;;;;;;8.55;6.95;;;25.90;48.50;;;;;;6154065;23;20109;-86
2021/10/16 14:04:52;;;;;;;10.60;7.35;;;25.40;49.20;;;;;;6133672;23;20358;-85
2021/10/16 14:07:40;;;;;;;10.55;7.50;;;25.00;48.10;;;;;;6134849;23;20117;-85
2021/10/16 14:10:27;;;;;;;14.57;7.68;;;24.80;49.40;;;;;;6131046;23;20033;-85
2021/10/16 14:13:18;;;;;;;14.68;7.75;;;24.50;49.80;;;;;;6133796;23;20025;-88
2021/10/16 14:16:13;;;;;;;12.15;7.63;;;23.30;51.70;;;;;;6152623;23;20032;-87
2021/10/16 14:19:00;;;;;;;13.23;8.68;;;22.80;53.50;;;;;;6132565;23;20065;-87
2021/10/16 14:21:47;;;;;;;11.32;8.23;;;22.20;55.40;;;;;;6133622;23;20072;-87
2021/10/16 14:24:36;;;;;;;9.77;7.80;;;22.10;54.80;;;;;;6131169;23;20084;-86
2021/10/16 14:27:23;;;;;;;12.32;7.85;;;22.40;54.50;;;;;;6154800;23;20080;-85
2021/10/16 14:30:14;;;;;;;8.88;7.53;;;22.40;54.50;;;;;;6115407;23;20077;-87
2021/10/16 14:33:02;;;;;;;9.73;7.88;;;22.40;53.90;;;;;;6132433;23;20022;-85
2021/10/16 14:35:53;;;;;;;9.38;6.47;;;22.50;52.90;;;;;;6132955;23;20029;-85
2021/10/16 14:38:40;;;;;;;7.25;5.63;;;22.50;51.90;;;;;;6154025;23;20448;-86
2021/10/16 14:42:13;;;;;;;8.07;6.82;;;22.60;52.20;;;;;;6117738;23;20030;-85
2021/10/16 14:45:01;;;;;;;9.32;8.10;;;22.40;52.40;;;;;;6122833;23;20026;-84
2021/10/16 14:47:49;;;;;;;10.75;8.90;;;22.00;54.30;;;;;;6122253;23;20035;-86
2021/10/16 14:50:36;;;;;;;11.85;8.38;;;22.10;54.30;;;;;;6102462;23;20080;-85
2021/10/16 14:53:24;;;;;;;11.20;7.75;;;21.60;55.10;;;;;;6124456;23;20025;-85
2021/10/16 14:56:11;;;;;;;10.43;7.75;;;21.10;56.40;;;;;;6123758;23;20032;-86
2021/10/16 14:58:59;;;;;;;13.45;9.18;;;21.00;56.70;;;;;;6084532;23;20029;-86
2021/10/16 15:01:47;;;;;;;10.80;8.02;;;19.90;59.00;;;;;;6126255;23;20143;-85
2021/10/16 15:04:38;;;;;;;12.15;8.05;;;19.20;62.10;;;;;;6105558;23;20036;-86
2021/10/16 15:07:31;;;;;;;11.13;7.95;;;19.30;61.60;;;;;;6125440;23;20068;-88
2021/10/16 15:10:19;;;;;;;10.65;7.80;;;19.50;61.40;;;;;;6127735;23;20121;-87
2021/10/16 15:13:06;;;;;;;13.82;8.38;;;19.70;60.00;;;;;;6130339;23;20033;-85
2021/10/16 15:15:54;;;;;;;13.38;8.40;;;19.70;59.60;;;;;;6133066;23;20022;-86
2021/10/16 15:18:44;;;;;;;12.63;9.65;;;19.70;59.90;;;;;;6097522;23;20026;-85
2021/10/16 15:21:31;;;;;;;13.50;8.98;;;19.70;60.80;;;;;;6138242;23;20314;-87
2021/10/16 15:24:21;;;;;;;13.75;8.13;;;19.60;61.00;;;;;;6137256;23;20034;-90
2021/10/16 15:27:09;;;;;;;8.65;7.57;;;19.70;61.20;;;;;;6109912;23;20057;-86
2021/10/16 15:29:58;;;;;;;12.88;7.22;;;19.80;60.90;;;;;;6127114;23;20037;-86
2021/10/16 15:32:50;;;;;;;12.05;8.57;;;19.60;61.90;;;;;;6105195;23;20033;-88
2021/10/16 15:35:37;;;;;;;12.20;7.95;;;19.20;63.30;;;;;;6104640;23;20026;-84
2021/10/16 15:38:26;;;;;;;18.10;8.35;;;18.80;65.10;;;;;;6103768;23;20088;-85